Time;durP1;ratioP1;P1;durP2;ratioP2;P2;SDS_P1;SDS_P2;PMS_P1;PMS_P2;Temp;Humidity;BMP_temperature;BMP_pressure;BME280_temperature;BME280_humidity;BME280_pressure;Samples;Min_cycle;Max_cycle;Signal;HPM_P1;HPM_P2
2023/10/05 00:04:08;;;;;;;5.57;1.92;;;;;;;12.18;100.00;101974.69;10472553;28;20546;-78
2023/10/05 00:09:13;;;;;;;5.30;1.25;;;;;;;12.18;100.00;101970.00;10467692;28;20392;-75
2023/10/05 00:14:13;;;;;;;5.40;1.38;;;;;;;12.15;100.00;101953.91;10480139;28;20033;-75
2023/10/05 00:19:15;;;;;;;6.47;1.58;;;;;;;12.21;100.00;101968.69;10484888;28;20032;-76
2023/10/05 00:24:19;;;;;;;10.38;1.50;;;;;;;12.22;100.00;101965.69;10468920;28;20051;-76
2023/10/05 00:29:29;;;;;;;4.53;2.17;;;;;;;12.24;100.00;101969.06;10478832;28;20531;-77
2023/10/05 00:34:32;;;;;;;6.38;1.45;;;;;;;12.28;100.00;101961.97;10484807;28;20044;-76
2023/10/05 00:39:33;;;;;;;9.27;1.83;;;;;;;12.39;100.00;101967.75;10478273;28;20043;-76
2023/10/05 00:44:35;;;;;;;3.97;1.60;;;;;;;12.45;100.00;101958.50;10479649;28;20037;-77
2023/10/05 00:54:45;;;;;;;6.15;1.40;;;;;;;12.47;100.00;101939.78;10478304;28;20045;-77
2023/10/05 00:59:54;;;;;;;7.22;1.35;;;;;;;12.35;100.00;101934.25;10483415;28;20045;-78
2023/10/05 01:05:01;;;;;;;7.80;1.77;;;;;;;12.28;100.00;101941.81;10462227;28;20044;-76
2023/10/05 01:15:09;;;;;;;4.35;1.67;;;;;;;12.20;100.00;101943.00;10439317;28;20107;-76
2023/10/05 01:20:12;;;;;;;4.75;1.30;;;;;;;12.17;100.00;101951.75;10481353;28;20033;-76
2023/10/05 01:25:16;;;;;;;12.10;2.03;;;;;;;12.16;100.00;101939.03;10477269;28;20037;-77
2023/10/05 01:30:17;;;;;;;4.93;2.30;;;;;;;12.14;100.00;101930.16;10450784;28;20060;-76
2023/10/05 01:35:17;;;;;;;5.13;1.50;;;;;;;12.20;100.00;101923.69;10461727;28;20052;-78
2023/10/05 01:45:29;;;;;;;7.38;1.48;;;;;;;12.23;100.00;101923.19;10476758;28;20056;-77
2023/10/05 01:50:29;;;;;;;12.10;2.22;;;;;;;12.26;100.00;101933.78;10479171;28;20041;-77
2023/10/05 01:55:35;;;;;;;7.68;1.40;;;;;;;12.21;100.00;101924.50;10477040;28;20041;-75
2023/10/05 02:00:38;;;;;;;10.00;1.63;;;;;;;12.27;100.00;101932.69;10478085;28;20047;-77
2023/10/05 02:05:39;;;;;;;8.90;1.60;;;;;;;12.26;100.00;101933.78;10479022;28;20043;-75
2023/10/05 02:10:40;;;;;;;6.20;1.60;;;;;;;12.23;100.00;101923.19;10473537;28;20036;-77
2023/10/05 02:15:40;;;;;;;15.75;2.25;;;;;;;12.27;100.00;101932.69;10468754;28;20420;-76
2023/10/05 02:20:44;;;;;;;9.25;2.83;;;;;;;12.31;100.00;101927.53;10469253;28;20062;-76
2023/10/05 02:25:45;;;;;;;8.90;2.60;;;;;;;12.33;100.00;101933.63;10479712;28;20056;-76
2023/10/05 02:30:46;;;;;;;8.45;2.05;;;;;;;11.81;100.00;101846.00;10474904;28;20068;-76
2023/10/05 02:35:48;;;;;;;8.05;1.95;;;;;;;12.36;100.00;101937.84;10464101;28;20041;-75
2023/10/05 02:40:54;;;;;;;9.60;2.28;;;;;;;12.31;100.00;101922.81;10481214;28;20040;-76
2023/10/05 02:46:01;;;;;;;12.20;1.77;;;;;;;12.28;100.00;101909.53;10471968;28;20053;-76
2023/10/05 02:51:05;;;;;;;3.92;1.50;;;;;;;12.35;100.00;101912.16;10463041;28;20099;-77
2023/10/05 02:56:17;;;;;;;6.28;1.63;;;;;;;12.39;100.00;101907.00;10474160;28;20047;-77
2023/10/05 03:01:17;;;;;;;6.93;2.08;;;;;;;12.43;100.00;101905.44;10479043;28;20052;-76
2023/10/05 03:06:20;;;;;;;8.18;1.58;;;;;;;12.44;100.00;101902.44;10462612;28;20044;-77
2023/10/05 03:11:21;;;;;;;13.77;2.47;;;;;;;12.46;100.00;101904.94;10473310;28;20092;-75
2023/10/05 03:16:21;;;;;;;8.68;2.33;;;;;;;12.50;100.00;101901.44;10481129;28;20033;-77
2023/10/05 03:21:22;;;;;;;8.52;3.08;;;;;;;12.52;100.00;101901.19;10472972;28;20048;-75
2023/10/05 03:26:22;;;;;;;12.02;3.08;;;;;;;12.52;100.00;101898.44;10480213;28;20043;-76
2023/10/05 03:31:31;;;;;;;8.93;1.67;;;;;;;12.48;100.00;101902.78;10476426;28;20052;-76
2023/10/05 03:36:33;;;;;;;9.90;1.88;;;;;;;12.46;100.00;101904.94;10473436;28;20055;-76
2023/10/05 03:41:38;;;;;;;8.38;1.83;;;;;;;12.36;100.00;101896.41;10484233;28;20186;-76
2023/10/05 03:46:39;;;;;;;9.98;1.67;;;;;;;12.51;100.00;101913.34;10481467;28;20061;-77
2023/10/05 03:51:43;;;;;;;8.50;1.48;;;;;;;12.57;100.00;101912.38;10484617;28;20033;-77
2023/10/05 03:56:45;;;;;;;6.22;1.95;;;;;;;12.59;100.00;101907.44;10480325;28;20037;-76
2023/10/05 04:01:48;;;;;;;3.63;1.50;;;;;;;12.65;100.00;101909.25;10444227;28;20047;-76
2023/10/05 04:06:51;;;;;;;6.18;1.70;;;;;;;12.63;100.00;101910.56;10481796;28;20049;-76
2023/10/05 04:11:51;;;;;;;12.88;3.08;;;;;;;12.64;100.00;101915.84;10485207;28;20041;-77
2023/10/05 04:16:53;;;;;;;7.43;1.70;;;;;;;12.65;100.00;101914.78;10482381;28;20071;-76
2023/10/05 04:21:56;;;;;;;4.65;1.55;;;;;;;12.60;100.00;101900.84;10480445;28;20047;-79
2023/10/05 04:26:57;;;;;;;7.32;1.92;;;;;;;12.52;100.00;101909.50;10481183;28;20104;-75
2023/10/05 04:31:58;;;;;;;12.13;2.40;;;;;;;12.42;100.00;101914.78;10483988;28;20097;-75
2023/10/05 04:36:59;;;;;;;8.75;1.73;;;;;;;12.29;100.00;101916.72;10480377;28;20044;-76
2023/10/05 04:42:11;;;;;;;8.18;1.45;;;;;;;12.27;100.00;101920.78;10460964;28;20047;-76
2023/10/05 04:47:11;;;;;;;9.50;1.92;;;;;;;12.30;100.00;101923.09;10481686;28;20179;-76
2023/10/05 04:52:19;;;;;;;10.50;2.22;;;;;;;12.39;100.00;101920.81;10478558;28;20216;-76
2023/10/05 04:57:35;;;;;;;13.45;3.30;;;;;;;12.41;100.00;101913.94;10481907;28;20139;-77
2023/10/05 05:02:57;;;;;;;8.50;1.70;;;;;;;12.32;100.00;101905.19;10470376;28;20051;-76
2023/10/05 05:07:56;;;;;;;10.25;2.20;;;;;;;12.25;100.00;101907.22;10481383;28;20044;-76
2023/10/05 05:12:57;;;;;;;12.38;2.13;;;;;;;12.19;100.00;101912.88;10475719;28;20051;-76
2023/10/05 05:17:58;;;;;;;8.68;2.03;;;;;;;12.15;100.00;101923.53;10477002;28;20049;-75
2023/10/05 05:22:58;;;;;;;8.30;1.55;;;;;;;12.17;100.00;101924.16;10484037;28;20048;-76
2023/10/05 05:28:01;;;;;;;11.63;2.00;;;;;;;12.16;100.00;101919.72;10477306;28;20045;-74
2023/10/05 05:33:09;;;;;;;14.98;3.53;;;;;;;12.16;100.00;101913.38;10468377;28;20386;-76
2023/10/05 05:38:10;;;;;;;9.65;2.55;;;;;;;12.07;100.00;101910.97;10477746;28;20561;-76
2023/10/05 05:43:14;;;;;;;9.80;3.28;;;;;;;12.11;100.00;101909.41;10475684;28;20074;-78
2023/10/05 05:48:15;;;;;;;18.88;3.47;;;;;;;12.13;100.00;101914.66;10480661;28;20813;-77
2023/10/05 05:53:16;;;;;;;17.45;2.83;;;;;;;12.07;100.00;101905.44;10478952;28;20071;-77
2023/10/05 05:58:16;;;;;;;7.28;1.85;;;;;;;12.24;100.00;101919.38;10477875;28;20040;-75
2023/10/05 06:03:17;;;;;;;13.50;2.78;;;;;;;12.43;100.00;101928.34;10477239;28;20037;-77
2023/10/05 06:08:18;;;;;;;8.82;1.30;;;;;;;12.62;100.00;101934.59;10465381;28;20101;-77
2023/10/05 06:13:19;;;;;;;9.95;2.45;;;;;;;12.76;100.00;101943.47;10479390;28;20052;-78
2023/10/05 06:18:20;;;;;;;9.32;2.65;;;;;;;12.85;100.00;101952.22;10480251;28;20071;-77
2023/10/05 06:23:20;;;;;;;11.27;2.22;;;;;;;12.79;100.00;101953.19;10481374;28;20539;-75
2023/10/05 06:28:22;;;;;;;11.10;2.55;;;;;;;12.87;100.00;101966.63;10475204;28;20482;-75
2023/10/05 06:33:22;;;;;;;11.30;3.65;;;;;;;12.94;100.00;101970.13;10478470;28;20170;-72
2023/10/05 06:38:23;;;;;;;8.63;2.13;;;;;;;13.04;100.00;101962.03;10479074;28;20244;-76
2023/10/05 06:43:26;;;;;;;12.65;2.50;;;;;;;13.16;100.00;101961.16;10472732;28;20049;-75
2023/10/05 06:48:26;;;;;;;11.05;2.58;;;;;;;13.30;100.00;101970.88;10480799;28;20056;-76
2023/10/05 06:53:27;;;;;;;10.60;1.67;;;;;;;13.40;100.00;101967.47;10475618;28;20511;-76
2023/10/05 06:58:28;;;;;;;11.15;2.72;;;;;;;13.56;100.00;101985.19;10477499;28;20051;-76
2023/10/05 07:03:28;;;;;;;8.63;1.95;;;;;;;13.66;100.00;101996.47;10462334;28;20041;-75
2023/10/05 07:08:29;;;;;;;6.28;2.17;;;;;;;13.72;100.00;101989.94;10473921;28;20052;-76
2023/10/05 07:13:29;;;;;;;9.18;1.88;;;;;;;13.93;100.00;102003.06;10478331;28;20071;-73
2023/10/05 07:18:30;;;;;;;16.50;2.58;;;;;;;13.91;100.00;101985.88;10484480;28;20036;-74
2023/10/05 07:23:31;;;;;;;11.43;2.30;;;;;;;14.09;100.00;102003.34;10485051;28;20098;-74
2023/10/05 07:28:33;;;;;;;14.82;3.80;;;;;;;14.15;100.00;102010.63;10483437;28;20040;-76
2023/10/05 07:33:33;;;;;;;7.25;1.92;;;;;;;14.33;100.00;102024.25;10484867;28;20040;-75
2023/10/05 07:38:34;;;;;;;10.10;3.75;;;;;;;14.43;100.00;102018.03;10476321;28;20048;-77
2023/10/05 07:43:34;;;;;;;12.23;2.22;;;;;;;14.58;100.00;102028.56;10480157;28;20480;-76
2023/10/05 07:48:36;;;;;;;11.48;2.85;;;;;;;14.56;100.00;102039.06;10485510;28;20036;-76
2023/10/05 07:53:36;;;;;;;12.45;1.92;;;;;;;14.65;100.00;102043.06;10480454;28;20041;-76
2023/10/05 07:58:37;;;;;;;14.30;3.30;;;;;;;14.79;100.00;102054.66;10467371;28;20862;-75
2023/10/05 08:03:39;;;;;;;11.35;2.55;;;;;;;14.73;100.00;102050.94;10467125;28;20040;-75
2023/10/05 08:08:44;;;;;;;11.52;4.57;;;;;;;14.75;100.00;102063.75;10482691;28;20040;-75
2023/10/05 08:13:44;;;;;;;19.80;3.53;;;;;;;14.58;100.00;102014.69;10482153;28;20123;-75
2023/10/05 08:18:45;;;;;;;9.13;3.25;;;;;;;15.13;100.00;102083.19;10479171;28;20041;-75
2023/10/05 08:23:45;;;;;;;11.10;2.65;;;;;;;15.19;100.00;102084.06;10483376;28;20044;-75
2023/10/05 08:28:50;;;;;;;12.13;2.80;;;;;;;15.21;100.00;102092.97;10481988;28;20033;-77
2023/10/05 08:33:53;;;;;;;12.18;3.58;;;;;;;15.18;100.00;102106.53;10478410;28;20142;-76
2023/10/05 08:38:54;;;;;;;7.40;2.40;;;;;;;15.08;100.00;102110.81;10467709;28;20041;-76
2023/10/05 08:43:55;;;;;;;11.77;2.80;;;;;;;14.93;100.00;102116.16;10479140;28;20396;-79
2023/10/05 08:48:56;;;;;;;9.57;3.13;;;;;;;14.66;100.00;102122.38;10482827;28;20041;-74
2023/10/05 08:53:57;;;;;;;13.30;2.80;;;;;;;14.60;100.00;102123.38;10478611;28;20079;-74
2023/10/05 08:59:02;;;;;;;11.80;3.38;;;;;;;14.67;100.00;102132.34;10481340;28;20032;-75
2023/10/05 09:09:14;;;;;;;13.75;3.60;;;;;;;14.67;100.00;102151.75;10436671;28;20101;-75
2023/10/05 09:14:27;;;;;;;13.23;3.35;;;;;;;14.69;100.00;102160.66;10454373;28;20041;-77
2023/10/05 09:19:29;;;;;;;10.30;3.03;;;;;;;14.63;100.00;102167.19;10478614;28;20385;-72
2023/10/05 09:24:30;;;;;;;12.82;2.95;;;;;;;14.59;100.00;102162.41;10477627;28;20041;-76
2023/10/05 09:29:33;;;;;;;13.63;3.97;;;;;;;14.51;100.00;102185.78;10453064;28;20049;-77
2023/10/05 09:34:33;;;;;;;11.98;3.58;;;;;;;14.39;100.00;102182.28;10473298;28;20041;-75
2023/10/05 09:39:44;;;;;;;14.48;3.80;;;;;;;14.38;100.00;102199.97;10474762;28;20035;-74
2023/10/05 09:44:51;;;;;;;8.70;3.10;;;;;;;14.37;100.00;102201.06;10482252;28;20449;-74
2023/10/05 09:49:59;;;;;;;12.80;3.92;;;;;;;14.38;100.00;102203.56;10463675;28;20025;-74
2023/10/05 09:55:00;;;;;;;10.18;3.13;;;;;;;14.39;100.00;102191.41;10474685;28;20045;-74
2023/10/05 10:00:00;;;;;;;10.43;4.07;;;;;;;14.36;100.00;102199.38;10461441;28;20033;-74
2023/10/05 10:05:04;;;;;;;10.57;4.28;;;;;;;14.40;100.00;102217.19;10446451;28;20048;-72
2023/10/05 10:10:05;;;;;;;12.70;3.72;;;;;;;14.39;100.00;102190.59;10439445;28;20037;-73
2023/10/05 10:15:24;;;;;;;12.00;3.83;;;;;;;14.75;100.00;102192.09;10455688;28;20059;-72
2023/10/05 10:20:37;;;;;;;12.93;4.88;;;;;;;14.87;100.00;102223.34;10479760;28;20040;-73
2023/10/05 10:25:40;;;;;;;6.82;3.75;;;;;;;15.03;100.00;102196.75;10456214;28;20040;-74
2023/10/05 10:31:08;;;;;;;10.88;3.45;;;;;;;15.01;100.00;102198.91;10476191;28;20468;-73
2023/10/05 10:36:19;;;;;;;7.88;2.95;;;;;;;14.83;100.00;102204.72;10473290;28;20048;-74
2023/10/05 10:41:22;;;;;;;9.95;3.47;;;;;;;14.80;100.00;102216.28;10469060;28;20048;-74
2023/10/05 10:46:29;;;;;;;9.70;3.10;;;;;;;14.78;100.00;102215.69;10477403;28;20094;-73
2023/10/05 10:51:38;;;;;;;8.20;2.65;;;;;;;14.90;100.00;102206.22;10471258;28;20543;-75
2023/10/05 10:56:42;;;;;;;10.38;2.55;;;;;;;15.06;100.00;102214.78;10462639;28;20100;-74
2023/10/05 11:01:43;;;;;;;9.40;3.45;;;;;;;15.40;100.00;102209.22;10441322;28;20064;-74
2023/10/05 11:06:48;;;;;;;11.98;3.85;;;;;;;15.84;100.00;102217.69;10453944;28;20377;-76
2023/10/05 11:11:48;;;;;;;8.00;3.00;;;;;;;15.99;100.00;102225.38;10472091;28;20041;-75
2023/10/05 11:16:59;;;;;;;9.02;2.95;;;;;;;16.00;100.00;102221.47;10477830;28;20041;-75
2023/10/05 11:22:04;;;;;;;11.77;3.47;;;;;;;16.68;100.00;102217.28;10456362;28;20044;-75
2023/10/05 11:27:14;;;;;;;9.50;2.90;;;;;;;16.65;100.00;102209.44;10451792;28;20041;-75
2023/10/05 11:32:20;;;;;;;5.50;2.13;;;;;;;16.64;100.00;102199.44;10447027;28;20041;-75
2023/10/05 11:37:21;;;;;;;10.60;2.40;;;;;;;16.79;100.00;102220.16;10448555;28;20093;-79
2023/10/05 11:42:41;;;;;;;9.98;2.83;;;;;;;17.11;100.00;102220.19;10446610;28;20514;-79
2023/10/05 11:47:53;;;;;;;10.68;2.83;;;;;;;17.19;100.00;102214.13;10432526;28;20045;-76
2023/10/05 11:52:53;;;;;;;8.60;3.45;;;;;;;16.69;100.00;102179.19;10438646;28;20037;-73
2023/10/05 11:57:54;;;;;;;7.20;2.63;;;;;;;16.70;100.00;102223.41;10473810;28;20045;-74
2023/10/05 12:02:54;;;;;;;7.40;2.22;;;;;;;16.65;100.00;102225.28;10470164;28;20029;-76
2023/10/05 12:07:54;;;;;;;9.02;2.40;;;;;;;16.60;100.00;102236.34;10476223;28;20388;-76
2023/10/05 12:12:55;;;;;;;8.65;2.03;;;;;;;16.70;100.00;102211.44;10484868;28;20106;-77
2023/10/05 12:17:56;;;;;;;6.80;1.95;;;;;;;16.58;100.00;102219.09;10478048;28;20492;-76
2023/10/05 12:22:59;;;;;;;13.20;2.72;;;;;;;16.65;100.00;102230.84;10484143;28;20044;-77
2023/10/05 12:28:00;;;;;;;9.30;2.60;;;;;;;16.51;100.00;102230.44;10466536;28;20056;-77
2023/10/05 12:33:00;;;;;;;7.32;2.65;;;;;;;16.33;100.00;102235.25;10483642;28;20040;-76
2023/10/05 12:38:01;;;;;;;5.90;2.70;;;;;;;16.39;100.00;102240.84;10480070;28;20041;-77
2023/10/05 12:43:02;;;;;;;13.05;3.53;;;;;;;16.59;100.00;102229.97;10481966;28;20032;-79
2023/10/05 12:48:04;;;;;;;2.30;0.85;;;;;;;17.04;100.00;102244.63;10428178;22;20052;-79
2023/10/05 12:53:05;;;;;;;5.13;0.98;;;;;;;16.71;100.00;102240.94;10401744;28;20066;-80
2023/10/05 12:58:09;;;;;;;4.53;1.20;;;;;;;16.44;100.00;102252.03;10396798;28;20065;-79
2023/10/05 13:03:12;;;;;;;4.22;1.17;;;;;;;16.25;100.00;102255.16;10397072;28;20073;-81
2023/10/05 13:08:14;;;;;;;4.80;1.45;;;;;;;16.23;100.00;102251.78;10399177;28;20088;-82
2023/10/05 13:13:17;;;;;;;4.93;1.25;;;;;;;16.40;100.00;102250.88;10402427;28;20044;-85
2023/10/05 13:18:18;;;;;;;3.35;1.42;;;;;;;16.58;100.00;102244.09;10396186;28;20473;-81
2023/10/05 13:23:21;;;;;;;4.90;2.17;;;;;;;16.81;100.00;102248.56;10404001;28;20037;-81
2023/10/05 13:28:24;;;;;;;7.10;1.88;;;;;;;17.28;100.00;102245.06;10395814;28;20115;-82
2023/10/05 13:33:34;;;;;;;7.45;2.63;;;;;;;17.52;100.00;102243.59;10388091;28;20042;-82
2023/10/05 13:38:34;;;;;;;7.88;2.10;;;;;;;16.97;100.00;102275.44;10393176;28;20041;-76
2023/10/05 13:43:36;;;;;;;9.27;1.80;;;;;;;16.18;100.00;102271.16;10381578;28;20038;-71
2023/10/05 13:48:39;;;;;;;4.18;1.90;;;;;;;15.58;100.00;102266.41;10399349;28;20041;-72
2023/10/05 13:53:46;;;;;;;8.93;2.05;;;;;;;15.28;100.00;102267.59;10395812;28;20034;-72
2023/10/05 13:58:48;;;;;;;4.78;2.05;;;;;;;15.08;100.00;102263.38;10387898;28;20105;-71
2023/10/05 14:03:50;;;;;;;5.82;1.80;;;;;;;15.10;100.00;102265.91;10386604;28;20069;-71
2023/10/05 14:08:51;;;;;;;5.07;2.15;;;;;;;15.53;100.00;102259.69;10398825;28;20049;-72
2023/10/05 14:13:51;;;;;;;4.55;2.08;;;;;;;16.44;100.00;102268.72;10365822;28;20089;-71
2023/10/05 14:18:52;;;;;;;9.38;2.90;;;;;;;16.45;100.00;102253.69;10363108;28;20042;-72
2023/10/05 14:23:52;;;;;;;2.97;1.27;;;;;;;16.32;100.00;102254.94;10376712;28;20521;-72
2023/10/05 14:28:55;;;;;;;4.50;1.70;;;;;;;15.82;100.00;102217.94;10372063;28;20046;-72
2023/10/05 14:33:56;;;;;;;5.95;2.40;;;;;;;15.88;100.00;102261.34;10381934;28;20041;-72
2023/10/05 14:39:05;;;;;;;6.43;2.50;;;;;;;15.69;100.00;102268.25;10362908;28;20048;-72
2023/10/05 14:44:08;;;;;;;9.00;2.40;;;;;;;15.51;100.00;102264.63;10384577;28;20037;-72
2023/10/05 14:49:08;;;;;;;9.18;2.88;;;;;;;15.47;100.00;102266.25;10396890;28;20062;-72
2023/10/05 14:54:09;;;;;;;10.18;3.28;;;;;;;15.57;100.00;102270.28;10387530;28;20050;-72
2023/10/05 14:59:10;;;;;;;6.35;2.55;;;;;;;15.72;100.00;102267.75;10372832;28;20080;-72
2023/10/05 15:04:11;;;;;;;5.68;2.67;;;;;;;16.02;100.00;102260.94;10390759;28;20088;-72
2023/10/05 15:09:12;;;;;;;9.35;3.13;;;;;;;16.02;100.00;102263.72;10394416;28;20037;-72
2023/10/05 15:14:12;;;;;;;7.03;3.08;;;;;;;16.08;100.00;102269.13;10398759;28;20049;-72
2023/10/05 15:19:13;;;;;;;6.00;2.70;;;;;;;16.30;100.00;102257.16;10393862;28;20474;-71
2023/10/05 15:24:13;;;;;;;7.05;2.70;;;;;;;16.25;100.00;102265.44;10400852;28;20049;-73
2023/10/05 15:29:14;;;;;;;8.52;3.13;;;;;;;16.07;100.00;102269.38;10395426;28;20095;-72
2023/10/05 15:34:14;;;;;;;9.23;3.10;;;;;;;15.87;100.00;102259.63;10377943;28;20058;-74
2023/10/05 15:39:15;;;;;;;9.48;3.22;;;;;;;15.67;100.00;102256.56;10372000;28;20034;-72
2023/10/05 15:44:16;;;;;;;9.05;3.50;;;;;;;15.53;100.00;102259.69;10380240;28;20057;-69
2023/10/05 15:49:16;;;;;;;10.65;3.92;;;;;;;15.42;100.00;102263.41;10389673;28;20053;-72
2023/10/05 15:54:17;;;;;;;6.63;3.03;;;;;;;15.35;100.00;102259.94;10382336;28;20030;-72
2023/10/05 15:59:17;;;;;;;7.93;3.22;;;;;;;15.29;100.00;102258.16;10371295;28;20029;-72
2023/10/05 16:04:18;;;;;;;11.32;3.75;;;;;;;15.22;100.00;102258.34;10375709;28;20041;-72
2023/10/05 16:09:20;;;;;;;11.35;4.00;;;;;;;15.25;100.00;102257.00;10375111;28;20041;-73
2023/10/05 16:14:21;;;;;;;7.38;2.50;;;;;;;15.17;100.00;102252.69;10373856;28;20053;-72
2023/10/05 16:19:22;;;;;;;9.30;3.03;;;;;;;15.07;100.00;102266.41;10373258;28;20060;-73
2023/10/05 16:24:22;;;;;;;9.18;3.42;;;;;;;14.91;100.00;102262.53;10370715;28;20049;-72
2023/10/05 16:29:22;;;;;;;7.57;2.20;;;;;;;14.74;100.00;102259.72;10373189;28;20042;-72
2023/10/05 16:34:23;;;;;;;6.53;2.22;;;;;;;14.60;100.00;102261.94;10377928;28;20394;-73
2023/10/05 16:39:23;;;;;;;8.18;2.78;;;;;;;14.53;100.00;102261.22;10392331;28;20437;-73
2023/10/05 16:44:24;;;;;;;5.78;2.40;;;;;;;14.48;100.00;102266.66;10380873;28;20045;-73
2023/10/05 16:49:24;;;;;;;7.95;2.80;;;;;;;14.42;100.00;102276.78;10392061;28;20068;-70
2023/10/05 16:54:26;;;;;;;5.85;3.50;;;;;;;14.29;100.00;102277.91;10390935;28;20227;-74
2023/10/05 16:59:26;;;;;;;17.73;3.40;;;;;;;14.11;100.00;102276.16;10402762;28;20050;-74
2023/10/05 17:04:28;;;;;;;14.82;3.35;;;;;;;13.99;100.00;102274.50;10397927;28;20060;-73
2023/10/05 17:09:29;;;;;;;13.55;4.93;;;;;;;13.86;100.00;102287.50;10417159;28;20038;-74
2023/10/05 17:14:29;;;;;;;12.07;4.50;;;;;;;13.73;100.00;102282.22;10397899;28;20037;-73
2023/10/05 17:19:30;;;;;;;15.40;5.63;;;;;;;13.60;100.00;102291.63;10400396;28;20319;-73
2023/10/05 17:24:30;;;;;;;21.13;6.90;;;;;;;13.49;100.00;102276.69;10395763;28;20053;-73
2023/10/05 17:29:31;;;;;;;11.20;6.28;;;;;;;13.38;100.00;102288.59;10399303;28;20030;-73
2023/10/05 17:34:31;;;;;;;9.13;4.95;;;;;;;13.17;100.00;102275.28;10394610;28;20030;-72
2023/10/05 17:39:32;;;;;;;13.57;4.63;;;;;;;13.10;100.00;102295.63;10400755;28;20497;-72
2023/10/05 17:44:32;;;;;;;14.40;5.15;;;;;;;13.00;100.00;102300.88;10394252;28;20386;-73
2023/10/05 17:49:33;;;;;;;7.60;4.07;;;;;;;12.88;100.00;102300.00;10386491;28;20512;-72
2023/10/05 17:54:34;;;;;;;16.27;5.38;;;;;;;12.82;100.00;102289.88;10394027;28;20045;-73
2023/10/05 17:59:34;;;;;;;12.35;4.60;;;;;;;12.79;100.00;102295.84;10384354;28;20034;-73
2023/10/05 18:04:35;;;;;;;13.88;5.05;;;;;;;12.76;100.00;102293.56;10377142;28;20038;-72
2023/10/05 18:09:35;;;;;;;10.88;4.05;;;;;;;12.80;100.00;102292.88;10375359;28;20489;-72
2023/10/05 18:14:36;;;;;;;12.05;4.65;;;;;;;12.69;100.00;102277.94;10389909;28;20042;-73
2023/10/05 18:19:36;;;;;;;9.65;3.83;;;;;;;12.68;100.00;102287.28;10390401;28;20034;-72
2023/10/05 18:24:37;;;;;;;7.90;4.03;;;;;;;12.61;100.00;102293.97;10391018;28;20038;-73
2023/10/05 18:29:37;;;;;;;11.75;4.28;;;;;;;12.57;100.00;102301.91;10395705;28;20239;-74
2023/10/05 18:34:38;;;;;;;15.77;4.18;;;;;;;12.54;100.00;102296.81;10394931;28;20038;-73
2023/10/05 18:39:38;;;;;;;9.65;4.43;;;;;;;12.49;100.00;102316.88;10398691;28;20042;-72
2023/10/05 18:44:40;;;;;;;15.85;4.88;;;;;;;12.46;100.00;102309.06;10392786;28;20038;-73
2023/10/05 18:49:40;;;;;;;9.32;4.50;;;;;;;12.40;100.00;102315.50;10377921;28;20046;-72
2023/10/05 18:54:42;;;;;;;11.15;4.70;;;;;;;12.35;100.00;102311.75;10384522;28;20075;-73
2023/10/05 18:59:43;;;;;;;14.85;4.35;;;;;;;12.34;100.00;102316.44;10390814;28;20034;-73
2023/10/05 19:04:43;;;;;;;17.42;5.65;;;;;;;12.34;100.00;102312.81;10396047;28;20042;-73
2023/10/05 19:09:44;;;;;;;13.27;5.00;;;;;;;12.30;100.00;102309.69;10393975;28;20434;-73
2023/10/05 19:14:49;;;;;;;10.77;5.07;;;;;;;12.31;100.00;102303.91;10396736;28;20398;-72
2023/10/05 19:19:50;;;;;;;13.65;5.50;;;;;;;12.28;100.00;102289.75;10366430;28;20037;-73
2023/10/05 19:24:51;;;;;;;12.90;5.05;;;;;;;12.32;100.00;102297.31;10400054;28;20041;-75
2023/10/05 19:29:52;;;;;;;12.50;4.88;;;;;;;12.46;100.00;102308.19;10384853;28;20049;-74
2023/10/05 19:34:52;;;;;;;11.80;4.63;;;;;;;12.55;100.00;102304.06;10409880;28;20046;-73
2023/10/05 19:39:53;;;;;;;10.07;4.50;;;;;;;12.60;100.00;102306.94;10401724;28;20037;-73
2023/10/05 19:44:53;;;;;;;15.45;5.55;;;;;;;12.67;100.00;102313.25;10400373;28;20037;-73
2023/10/05 19:49:54;;;;;;;10.23;4.65;;;;;;;12.65;100.00;102303.47;10373953;28;20044;-75
2023/10/05 19:54:57;;;;;;;28.27;5.18;;;;;;;12.80;100.00;102322.44;10399136;28;20041;-75
2023/10/05 19:59:58;;;;;;;17.98;4.70;;;;;;;12.81;100.00;102326.88;10412385;28;20041;-75
2023/10/05 20:04:59;;;;;;;9.88;3.47;;;;;;;12.80;100.00;102328.78;10399323;28;20040;-76
2023/10/05 20:09:59;;;;;;;8.65;3.78;;;;;;;12.82;100.00;102334.09;10381209;28;20064;-74
2023/10/05 20:15:00;;;;;;;12.52;3.95;;;;;;;12.82;100.00;102334.09;10391998;28;20125;-75
2023/10/05 20:20:00;;;;;;;15.52;4.47;;;;;;;12.83;100.00;102330.22;10379237;28;20498;-75
2023/10/05 20:25:02;;;;;;;9.95;4.35;;;;;;;12.90;100.00;102328.25;10396389;28;20042;-76
2023/10/05 20:30:06;;;;;;;11.35;4.57;;;;;;;12.92;100.00;102324.16;10384948;28;20461;-75
2023/10/05 20:35:07;;;;;;;11.27;3.78;;;;;;;12.94;100.00;102318.41;10401604;28;20065;-77
2023/10/05 20:40:08;;;;;;;20.10;4.20;;;;;;;12.99;100.00;102313.00;10400549;28;20041;-75
2023/10/05 20:45:09;;;;;;;14.98;4.80;;;;;;;13.03;100.00;102314.22;10382661;28;20105;-75
2023/10/05 20:50:10;;;;;;;9.73;3.97;;;;;;;13.02;100.00;102312.53;10398268;28;20061;-75
2023/10/05 20:55:10;;;;;;;15.50;5.20;;;;;;;13.04;100.00;102315.03;10396539;28;20102;-76
2023/10/05 21:00:12;;;;;;;13.68;6.05;;;;;;;13.07;100.00;102312.66;10391360;28;20038;-75
2023/10/05 21:05:14;;;;;;;11.32;5.88;;;;;;;13.08;100.00;102317.13;10399515;28;20038;-75
2023/10/05 21:10:14;;;;;;;10.23;4.32;;;;;;;13.08;100.00;102305.19;10390626;28;20145;-75
2023/10/05 21:15:15;;;;;;;10.77;4.00;;;;;;;13.06;100.00;102294.41;10381384;28;20053;-76
2023/10/05 21:20:15;;;;;;;8.65;4.90;;;;;;;13.02;100.00;102309.78;10411502;28;20504;-75
2023/10/05 21:25:17;;;;;;;12.02;4.55;;;;;;;13.02;100.00;102307.00;10401591;28;20041;-74
2023/10/05 21:30:18;;;;;;;10.98;4.28;;;;;;;13.04;100.00;102299.31;10398536;28;20042;-73
2023/10/05 21:35:18;;;;;;;13.57;4.68;;;;;;;13.04;100.00;102282.72;10397626;28;20045;-70
2023/10/05 21:40:20;;;;;;;12.13;4.32;;;;;;;12.96;100.00;102274.78;10394680;28;20042;-72
2023/10/05 21:45:20;;;;;;;13.27;5.03;;;;;;;13.07;100.00;102287.78;10395431;28;20042;-75
2023/10/05 21:50:21;;;;;;;9.23;5.40;;;;;;;13.08;100.00;102283.06;10399129;28;20045;-74
2023/10/05 21:55:21;;;;;;;10.10;4.50;;;;;;;13.09;100.00;102285.63;10404529;28;20516;-74
2023/10/05 22:05:54;;;;;;;10.27;5.25;;;;;;;13.06;100.00;102297.16;10357004;28;20046;-75
2023/10/05 22:10:55;;;;;;;16.88;5.00;;;;;;;13.07;100.00;102282.25;10399823;28;20472;-74
2023/10/05 22:15:55;;;;;;;11.48;4.43;;;;;;;13.04;100.00;102266.16;10398214;28;20054;-74
2023/10/05 22:20:57;;;;;;;10.88;4.80;;;;;;;12.95;100.00;102266.72;10397457;28;20045;-75
2023/10/05 22:25:57;;;;;;;10.23;4.80;;;;;;;12.89;100.00;102268.50;10397888;28;20077;-74
2023/10/05 22:30:58;;;;;;;15.13;6.03;;;;;;;12.88;100.00;102286.16;10396428;28;20061;-75
2023/10/05 22:35:58;;;;;;;7.25;4.72;;;;;;;12.89;100.00;102271.25;10398124;28;20037;-75
2023/10/05 22:40:58;;;;;;;14.88;5.47;;;;;;;12.89;100.00;102269.31;10401610;28;20037;-75
2023/10/05 22:45:59;;;;;;;10.13;3.92;;;;;;;12.91;100.00;102277.38;10396873;28;20033;-75
2023/10/05 22:50:59;;;;;;;9.57;4.65;;;;;;;12.91;100.00;102272.69;10397649;28;20097;-75
2023/10/05 22:56:00;;;;;;;10.52;4.38;;;;;;;12.87;100.00;102259.59;10396077;28;20034;-75
2023/10/05 23:01:00;;;;;;;13.57;5.20;;;;;;;12.83;100.00;102252.84;10396696;28;20033;-75
2023/10/05 23:06:02;;;;;;;12.25;5.15;;;;;;;12.86;100.00;102268.97;10384481;28;20048;-75
2023/10/05 23:11:05;;;;;;;8.82;4.85;;;;;;;12.87;100.00;102256.81;10373309;28;20063;-75